Wendover, UT

2:41 PM MDT on April 28, 2017 (GMT -0600)
Wendover

Weather History for KENV - September, 2013

Change the Weather History Date:

Monday, September 30, 2013

  Actual Average Record
Temperature  
Mean Temperature 70 °F -  
Max Temperature 80 °F 72 °F 89 °F (1990)
Min Temperature 60 °F 48 °F 35 °F (2007)
Cooling Degree Days 5    
Growing Degree Days 20 (Base 50)    
Moisture  
Dew Point 28 °F    
Average Humidity 20    
Maximum Humidity 29    
Minimum Humidity 15    
Precipitation  
Precipitation 0.00 in - - ()
Sea Level Pressure  
Sea Level Pressure 29.91 in    
Wind  
Wind Speed 17 mph (West)    
Max Wind Speed 28 mph    
Max Gust Speed 34 mph    
Visibility 10 miles    
Events      
Averages and records for this station are not official NWS values.
T = Trace of Precipitation, MM = Missing Value Source: NWS Daily Summary

Daily Weather History Graph

Daily Weather History Graph

Search for Another Location

Airport or City:

Trip Planner

Search our weather history database for the weather conditions in past years. The results will help you decide how hot, cold, wet, or windy it might be!

Date:

Astronomy

Sep. 30, 2013 Rise Set
Actual Time 7:31 AM MDT 7:19 PM MDT
Civil Twilight 7:04 AM MDT 7:46 PM MDT
Nautical Twilight 6:32 AM MDT 8:18 PM MDT
Astronomical Twilight 6:00 AM MDT 8:50 PM MDT
Moon 3:11 AM MDT (9/30) 4:53 PM MDT (9/30)
Length of Visible Light 12h 41m
Length of Day
11h 47m
Waning Crescent, 18% of the Moon is Illuminated
Sep 30
Waning Crescent
Oct 4
New
Oct 11
First Quarter
Oct 18
Full
Oct 26
Last Quarter

Hourly Weather History & Observations

Time (MDT) Temp. Dew Point Humidity Pressure Visibility Wind Dir Wind Speed Gust Speed Precip Events Conditions
12:15 AM 69.8 °F 26.6 °F 20% 29.91 in 10.0 mi WSW 13.8 mph - N/A   Clear
12:35 AM 69.8 °F 26.6 °F 20% 29.90 in 10.0 mi WSW 17.3 mph - N/A   Clear
12:55 AM 69.8 °F 26.6 °F 20% 29.90 in 10.0 mi West 19.6 mph - N/A   Clear
1:15 AM 69.8 °F 26.6 °F 20% 29.89 in 10.0 mi West 19.6 mph 25.3 mph N/A   Clear
1:35 AM 69.8 °F 26.6 °F 20% 29.89 in 10.0 mi West 13.8 mph - N/A   Clear
1:55 AM 66.2 °F 26.6 °F 23% 29.89 in 10.0 mi West 16.1 mph - N/A   Clear
2:15 AM 69.8 °F 26.6 °F 20% 29.89 in 10.0 mi West 20.7 mph - N/A   Clear
2:35 AM 69.8 °F 24.8 °F 18% 29.89 in 10.0 mi West 19.6 mph 29.9 mph N/A   Clear
2:55 AM 69.8 °F 24.8 °F 18% 29.89 in 10.0 mi West 19.6 mph 27.6 mph N/A   Clear
3:15 AM 69.8 °F 24.8 °F 18% 29.89 in 10.0 mi West 17.3 mph 25.3 mph N/A   Clear
3:35 AM 66.2 °F 24.8 °F 21% 29.90 in 10.0 mi West 13.8 mph - N/A   Clear
3:55 AM 66.2 °F 24.8 °F 21% 29.89 in 10.0 mi West 21.9 mph 25.3 mph N/A   Clear
4:15 AM 66.2 °F 24.8 °F 21% 29.89 in 10.0 mi WSW 18.4 mph - N/A   Clear
4:35 AM 64.4 °F 24.8 °F 22% 29.89 in 10.0 mi West 17.3 mph - N/A   Clear
4:55 AM 66.2 °F 24.8 °F 21% 29.88 in 10.0 mi West 19.6 mph 29.9 mph N/A   Clear
5:15 AM 66.2 °F 24.8 °F 21% 29.88 in 10.0 mi West 23.0 mph 32.2 mph N/A   Clear
5:35 AM 68.0 °F 26.6 °F 21% 29.89 in 10.0 mi West 17.3 mph 27.6 mph N/A   Clear
5:55 AM 64.4 °F 26.6 °F 24% 29.90 in 10.0 mi West 12.7 mph - N/A   Clear
6:15 AM 64.4 °F 26.6 °F 24% 29.90 in 10.0 mi SSW 8.1 mph - N/A   Clear
6:35 AM 64.4 °F 26.6 °F 24% 29.90 in 10.0 mi West 6.9 mph - N/A   Clear
6:55 AM 64.4 °F 26.6 °F 24% 29.90 in 10.0 mi WSW 11.5 mph - N/A   Clear
7:15 AM 66.2 °F 26.6 °F 23% 29.89 in 10.0 mi WSW 17.3 mph - N/A   Clear
7:35 AM 66.2 °F 26.6 °F 23% 29.89 in 10.0 mi WSW 16.1 mph - N/A   Clear
7:55 AM 66.2 °F 26.6 °F 23% 29.90 in 10.0 mi WSW 17.3 mph - N/A   Clear
8:15 AM 66.2 °F 26.6 °F 23% 29.90 in 10.0 mi WSW 17.3 mph 25.3 mph N/A   Clear
8:35 AM 66.2 °F 26.6 °F 23% 29.92 in 10.0 mi WSW 18.4 mph - N/A   Clear
8:55 AM 66.2 °F 26.6 °F 23% 29.92 in 10.0 mi WSW 16.1 mph - N/A   Clear
9:15 AM 66.2 °F 26.6 °F 23% 29.93 in 10.0 mi WSW 17.3 mph - N/A   Clear
9:35 AM 68.0 °F 26.6 °F 21% 29.93 in 10.0 mi WSW 21.9 mph 26.5 mph N/A   Clear
9:55 AM 71.6 °F 26.6 °F 19% 29.94 in 10.0 mi WSW 24.2 mph 31.1 mph N/A   Clear
10:15 AM 73.4 °F 26.6 °F 18% 29.94 in 10.0 mi WSW 26.5 mph 33.4 mph N/A   Scattered Clouds
10:35 AM 75.2 °F 28.4 °F 18% 29.94 in 10.0 mi West 19.6 mph 26.5 mph N/A   Mostly Cloudy
10:55 AM 75.2 °F 26.6 °F 17% 29.94 in 10.0 mi WSW 18.4 mph 24.2 mph N/A   Partly Cloudy
11:15 AM 75.2 °F 28.4 °F 18% 29.93 in 10.0 mi SW 16.1 mph 25.3 mph N/A   Clear
11:35 AM 75.2 °F 28.4 °F 18% 29.93 in 10.0 mi SW 19.6 mph 26.5 mph N/A   Clear
11:55 AM 77.0 °F 28.4 °F 17% 29.92 in 10.0 mi SW 18.4 mph 25.3 mph N/A   Scattered Clouds
12:15 PM 75.2 °F 28.4 °F 18% 29.92 in 10.0 mi SW 17.3 mph 23.0 mph N/A   Scattered Clouds
12:35 PM 77.0 °F 28.4 °F 17% 29.91 in 10.0 mi SW 23.0 mph 32.2 mph N/A   Partly Cloudy
12:55 PM 75.2 °F 30.2 °F 19% 29.91 in 10.0 mi SW 24.2 mph 29.9 mph N/A   Partly Cloudy
1:15 PM 78.8 °F 30.2 °F 17% 29.91 in 10.0 mi SW 20.7 mph 27.6 mph N/A   Partly Cloudy
1:35 PM 78.8 °F 32.0 °F 18% 29.90 in 10.0 mi WSW 20.7 mph 31.1 mph N/A   Partly Cloudy
1:55 PM 78.8 °F 32.0 °F 18% 29.90 in 10.0 mi West 21.9 mph 31.1 mph N/A   Clear
2:15 PM 80.6 °F 32.0 °F 17% 29.89 in 10.0 mi West 26.5 mph 34.5 mph N/A   Clear
2:35 PM 80.6 °F 33.8 °F 18% 29.88 in 10.0 mi West 23.0 mph - N/A   Clear
2:55 PM 80.6 °F 32.0 °F 17% 29.87 in 10.0 mi WSW 26.5 mph 34.5 mph N/A   Clear
3:15 PM 80.6 °F 30.2 °F 16% 29.88 in 10.0 mi WNW 27.6 mph - N/A   Clear
3:35 PM 80.6 °F 30.2 °F 16% 29.89 in 10.0 mi West 18.4 mph 26.5 mph N/A   Clear
3:55 PM 80.6 °F 30.2 °F 16% 29.89 in 10.0 mi West 15.0 mph 25.3 mph N/A   Clear
4:15 PM 80.6 °F 28.4 °F 15% 29.88 in 10.0 mi West 17.3 mph 26.5 mph N/A   Clear
4:35 PM 80.6 °F 28.4 °F 15% 29.88 in 10.0 mi West 24.2 mph 31.1 mph N/A   Clear
4:55 PM 78.8 °F 28.4 °F 16% 29.88 in 10.0 mi West 19.6 mph 24.2 mph N/A   Clear
5:15 PM 78.8 °F 30.2 °F 17% 29.88 in 10.0 mi West 11.5 mph 20.7 mph N/A   Clear
5:35 PM 78.8 °F 28.4 °F 16% 29.88 in 10.0 mi West 15.0 mph 20.7 mph N/A   Clear
5:55 PM 78.8 °F 28.4 °F 16% 29.88 in 10.0 mi West 19.6 mph 28.8 mph N/A   Clear
6:15 PM 77.0 °F 28.4 °F 17% 29.88 in 10.0 mi West 15.0 mph - N/A   Clear
6:35 PM 75.2 °F 28.4 °F 18% 29.88 in 10.0 mi WNW 16.1 mph 21.9 mph N/A   Clear
6:55 PM 73.4 °F 30.2 °F 20% 29.89 in 10.0 mi NW 17.3 mph 21.9 mph N/A   Clear
7:15 PM 73.4 °F 28.4 °F 19% 29.90 in 10.0 mi WNW 13.8 mph - N/A   Clear
7:35 PM 71.6 °F 28.4 °F 20% 29.91 in 10.0 mi WNW 13.8 mph - N/A   Clear
7:55 PM 69.8 °F 28.4 °F 21% 29.92 in 10.0 mi NW 10.4 mph - N/A   Clear
8:15 PM 69.8 °F 28.4 °F 21% 29.92 in 10.0 mi NW 9.2 mph - N/A   Clear
8:35 PM 69.8 °F 28.4 °F 21% 29.93 in 10.0 mi NNW 8.1 mph - N/A   Clear
8:55 PM 69.8 °F 28.4 °F 21% 29.94 in 10.0 mi Calm Calm - N/A   Clear
9:15 PM 69.8 °F 28.4 °F 21% 29.94 in 10.0 mi NW 5.8 mph - N/A   Clear
9:35 PM 68.0 °F 28.4 °F 23% 29.95 in 10.0 mi West 3.5 mph - N/A   Clear
9:55 PM 66.2 °F 28.4 °F 24% 29.96 in 10.0 mi Calm Calm - N/A   Clear
10:15 PM 66.2 °F 28.4 °F 24% 29.96 in 10.0 mi WNW 6.9 mph - N/A   Clear
10:35 PM 62.6 °F 28.4 °F 27% 29.96 in 10.0 mi WNW 5.8 mph - N/A   Clear
10:55 PM 62.6 °F 28.4 °F 27% 29.97 in 10.0 mi NW 6.9 mph - N/A   Clear
11:15 PM 60.8 °F 28.4 °F 29% 29.97 in 10.0 mi WNW 10.4 mph - N/A   Clear
11:35 PM 60.8 °F 28.4 °F 29% 29.96 in 10.0 mi WNW 13.8 mph - N/A   Clear
11:55 PM 60.8 °F 28.4 °F 29% 29.96 in 10.0 mi WNW 11.5 mph - N/A   Clear